AirNav   MODERNIZE NOT PRIVATIZE ATC
 
 644 users online  

FD58 St Luke's Hospital Heliport
Jacksonville, Florida, USA

GOING TO JACKSONVILLE?


FAA INFORMATION EFFECTIVE 20 JULY 2017

Location

FAA Identifier: FD58
Lat/Long: 30-15-17.7100N / 081-34-59.0800W
30-15.295167N / 081-34.984667W
30.2549194 / -81.5830778
(estimated)
Elevation: 25 ft. / 8 m (estimated)
Variation: 03W (1986)
Time zone: UTC -4 (UTC -5 during Standard Time)
Zip code: 32216

Heliport Operations

Heliport use: Private use. Permission required prior to landing
Activation date: 03/1986
Control tower: no
ARTCC: JACKSONVILLE CENTER
FSS: GAINESVILLE FLIGHT SERVICE STATION
Attendance: CONTINUOUS
Wind indicator: lighted
Segmented circle: no

Heliport Communications

WX ASOS at CRG (6 nm NE): PHONE 904-646-4670
WX AWOS-3 at HEG (12 nm W): 119.275 (904-695-0334)
WX ASOS at JAX (15 nm N): PHONE 904-741-4304
WX AWOS-3 at VQQ (15 nm W): 125.275 (904-778-6934)

Nearby radio navigation aids

VOR radial/distance  VOR name  Freq  Var
CRGr220/6.3CRAIG VORTAC114.5003W
VQQr084/(16.2)CECIL VOR117.9003W
SGJr330/22.2ST AUGUSTINE VOR/DME109.4006W

Heliport Services

Runway Information

Helipad H1

Dimensions: 60 x 60 ft. / 18 x 18 m
Surface: concrete
Latitude: 30-15.295167N
Longitude: 081-34.984667W
Elevation: 25.0 ft.
Traffic pattern: leftleft

Heliport Ownership and Management from official FAA records

Ownership: Privately-owned
Owner: ST. LUKE'S HOSPITAL
4201 BELFORT RD.
JACKSONVILLE, FL 32216
Phone 904-296-3700
Manager: GARY P. PEZALL
4201 BELFORT RD.
JACKSONVILLE, FL 32216
Phone 904-296-3749

Instrument Procedures

There are no published instrument procedures at FD58.

Some nearby airports with instrument procedures:

KNIP - Jacksonville Naval Air Station (Towers Field) (5 nm W)
KCRG - Jacksonville Executive Airport at Craig (6 nm NE)
KNRB - Mayport Naval Station (Adm David L. McDonald Field) (12 nm NE)
KHEG - Herlong Recreational Airport (12 nm W)
KJAX - Jacksonville International Airport (15 nm N)
KVQQ - Cecil Airport (15 nm W)
 
Loc | Ops | Rwys | IFR | FBO | Links
Com | Nav | Svcs | Stats | Notes


 
Area around FD58 (St Luke's Hospital Heliport)
 
Road maps at: MapQuest Bing Google
 
Aerial photo
No photo
 
Sectional chart

 
Airport distance calculator
Flying to St Luke's Hospital Heliport? Find the distance to fly.

From to FD58

Sunrise and sunset
Times for 26-Jul-2017
 Local
(UTC-4)
 Zulu
(UTC)
Morning civil twilight06:1610:16
Sunrise06:4210:42
Sunset20:2300:23
Evening civil twilight20:5000:50

Current date and time
Zulu (UTC)  26-Jul-2017 04:17:01
Local (UTC-4)  26-Jul-2017 00:17:01
 
METAR
KNIP 
5nm SW 
260353Z 32007KT 10SM SCT027 BKN045 BKN250 29/23 A3010 RMK AO2 SLP187 T2 SET T02940228 $
KCRG 
6nm NE 
260353Z AUTO 31006KT 10SM FEW030 SCT040 27/22 A3009 RMK AO2 SLP190 T02720217 $
KNRB 
12nm NE 
260352Z 32003KT 10SM SCT030 BKN050 BKN150 OVC250 27/24 A3009 RMK AO2 SLP190 T2 SET T02720239
KJAX 
16nm N 
260356Z 00000KT 10SM SCT042 BKN250 25/24 A3009 RMK AO2 SLP188 T02500239
KVQQ 
16nm W 
260355Z AUTO 33004KT 10SM BKN022 OVC028 26/22 A3009 RMK AO2
TAF
KNIP 
5nm SW 
2602/2623 21008KT 9999 VCTS SCT040CB SCT100 BKN250 QNH3002INS TEMPO 2602/2604 VRB20G30KT 4800 TSRA BKN040CB FM260600 VRB04KT 9999 FEW020 BKN250 QNH3001INS FM261500 20008KT 9999 VCTS SCT030CB BKN250 QNH2996INS TEMPO 2616/2622 VRB25G35KT 3200 TSRA BR SCT015 BKN030CB BKN250 AMD 0148 T26/2612Z T34/2620Z FN00189
KCRG 
6nm NE 
251135Z 2512/2612 23010KT P6SM VCSH SCT040 TEMPO 2512/2514 BKN025 FM260100 24004KT P6SM FEW040 SCT080 BKN150
KNRB 
12nm NE 
2602/2623 23006KT 9999 VCTS SCT030CB SCT150 BKN250 QNH3000INS TEMPO 2602/2604 VRB20G30KT 4800 TSRA BKN040CB FM261500 20009KT 9999 SCT030 SCT150 BKN250 QNH2995INS FM261800 11009KT 9999 VCTS SCT030CB SCT150 BKN250 QNH2995INS AUTOMATED SENSOR METWATCH 2604 TIL 2609 AMD 0148 T25/2609Z T33/2619Z FN00189
KJAX 
16nm N 
260224Z 2602/2624 34012G20KT P6SM VCTS SCT045CB BKN100 BKN150 TEMPO 2602/2604 5SM SHRA BR BKN040 FM260400 00000KT P6SM SCT040 BKN150 BKN250 FM261000 21003KT P6SM BKN020 OVC060 FM261300 19006KT P6SM FEW050 SCT250 FM261800 11008KT P6SM VCTS SCT050CB BKN250
KVQQ 
16nm W 
251135Z 2512/2612 24010KT P6SM VCSH SCT040 TEMPO 2512/2514 BKN025 FM260100 24004KT P6SM FEW040 SCT080 BKN150
NOTAMs
Click for the latest NOTAMs
NOTAMs are issued by the DoD/FAA and will open in a separate window not controlled by AirNav.

 

 
 

Would you like to see your business listed on this page?

 If your business provides an interesting product or service to pilots, flight crews, aircraft, or users of the St Luke's Hospital Heliport, you should consider listing it here.  To start the listing process, click on the button below
 
Add a business
 

Other Pages about St Luke's Hospital Heliport

Update a link
 
Copyright © AirNav, LLC. All rights reserved. Privacy Policy  Contact